createdAt,value
2017-08-27T00:00:06.367Z,18.6
2017-08-27T00:01:05.817Z,18.6
2017-08-27T00:02:05.141Z,18.6
2017-08-27T00:03:04.711Z,18.6
2017-08-27T00:04:04.396Z,18.6
2017-08-27T00:05:03.085Z,18.6
2017-08-27T00:06:02.531Z,18.6
2017-08-27T00:07:01.961Z,18.6
2017-08-27T00:08:01.531Z,18.5
2017-08-27T00:10:00.101Z,18.6
2017-08-27T00:10:59.668Z,18.5
2017-08-27T00:11:59.247Z,18.5
2017-08-27T00:12:58.449Z,18.5
2017-08-27T00:13:57.885Z,18.5
2017-08-27T00:14:57.449Z,18.5
2017-08-27T00:17:55.281Z,18.5
2017-08-27T00:18:54.849Z,18.5
2017-08-27T00:19:53.787Z,18.5
2017-08-27T00:20:53.474Z,18.5
2017-08-27T00:21:52.795Z,18.5
2017-08-27T00:22:52.229Z,18.5
2017-08-27T00:23:51.414Z,18.5
2017-08-27T00:24:50.604Z,18.5
2017-08-27T00:25:50.421Z,18.5
2017-08-27T00:26:49.478Z,18.4
2017-08-27T00:27:49.050Z,18.4
2017-08-27T00:28:48.229Z,18.4
2017-08-27T00:29:47.287Z,18.4
2017-08-27T00:30:47.102Z,18.4
2017-08-27T00:31:46.426Z,18.5
2017-08-27T00:32:45.490Z,18.4
2017-08-27T00:33:45.189Z,18.4
2017-08-27T00:34:44.638Z,18.4
2017-08-27T00:35:43.705Z,18.4
2017-08-27T00:36:43.038Z,18.3
2017-08-27T00:37:42.728Z,18.3
2017-08-27T00:39:41.182Z,18.3
2017-08-27T00:41:40.138Z,18.3
2017-08-27T00:42:39.575Z,18.3
2017-08-27T00:43:38.904Z,18.3
2017-08-27T00:44:38.106Z,18.3
2017-08-27T00:45:37.667Z,18.4
2017-08-27T00:46:36.976Z,18.4
2017-08-27T00:48:35.651Z,18.4
2017-08-27T00:49:35.092Z,18.4
2017-08-27T00:50:34.278Z,18.3
2017-08-27T00:51:33.457Z,18.4
2017-08-27T00:52:33.025Z,18.4
2017-08-27T00:53:32.587Z,18.3
2017-08-27T00:54:31.898Z,18.3
2017-08-27T00:55:31.348Z,18.4
2017-08-27T00:56:30.415Z,18.3
2017-08-27T00:57:29.606Z,18.3
2017-08-27T00:58:29.421Z,18.3
2017-08-27T00:59:00.032Z,18.3
2017-08-27T00:59:30.528Z,18.3
2017-08-27T01:00:01.275Z,18.3
2017-08-27T01:01:27.392Z,18.3
2017-08-27T01:02:26.721Z,18.3
2017-08-27T01:03:26.285Z,18.3
2017-08-27T01:04:25.106Z,18.3
2017-08-27T01:05:24.546Z,18.3
2017-08-27T01:06:23.868Z,18.3
2017-08-27T01:07:23.443Z,18.3
2017-08-27T01:08:22.743Z,18.3
2017-08-27T01:09:22.063Z,18.4
2017-08-27T01:10:21.878Z,18.4
2017-08-27T01:11:20.838Z,18.4
2017-08-27T01:12:20.403Z,18.4
2017-08-27T01:13:19.959Z,18.4
2017-08-27T01:15:18.148Z,18.5
2017-08-27T01:16:17.623Z,18.5
2017-08-27T01:17:17.054Z,18.5
2017-08-27T01:17:47.551Z,18.5
2017-08-27T01:18:18.180Z,18.5
2017-08-27T01:18:48.807Z,18.5
2017-08-27T01:20:15.422Z,18.5
2017-08-27T01:21:14.491Z,18.5
2017-08-27T01:23:13.320Z,18.5
2017-08-27T01:24:12.880Z,18.5
2017-08-27T01:25:12.194Z,18.5
2017-08-27T01:26:11.381Z,18.5
2017-08-27T01:27:10.817Z,18.5
2017-08-27T01:28:10.259Z,18.4
2017-08-27T01:29:09.571Z,18.4
2017-08-27T01:30:09.017Z,18.4
2017-08-27T01:31:08.598Z,18.4
2017-08-27T01:32:07.290Z,18.4
2017-08-27T01:34:06.612Z,18.4
2017-08-27T01:35:05.671Z,18.4
2017-08-27T01:36:05.249Z,18.5
2017-08-27T01:37:04.560Z,18.5
2017-08-27T01:38:04.004Z,18.4
2017-08-27T01:39:02.817Z,18.4
2017-08-27T01:40:02.262Z,18.4
2017-08-27T01:41:01.701Z,18.4
2017-08-27T01:42:01.018Z,18.4
2017-08-27T01:43:00.853Z,18.5
2017-08-27T01:44:59.182Z,18.5
2017-08-27T01:45:58.503Z,18.5
2017-08-27T01:46:57.948Z,18.5
2017-08-27T01:47:57.143Z,18.5
2017-08-27T01:48:56.580Z,18.5
2017-08-27T01:49:55.889Z,18.5
2017-08-27T01:50:55.331Z,18.4
2017-08-27T01:51:54.785Z,18.4
2017-08-27T01:52:54.217Z,18.4
2017-08-27T01:53:53.649Z,18.4
2017-08-27T01:54:52.958Z,18.4
2017-08-27T01:55:52.276Z,18.4
2017-08-27T01:56:51.854Z,18.5
2017-08-27T01:57:50.914Z,18.5
2017-08-27T01:58:50.365Z,18.4
2017-08-27T01:59:49.427Z,18.4
2017-08-27T02:00:49.374Z,18.4
2017-08-27T02:01:48.567Z,18.4
2017-08-27T02:02:47.881Z,18.5
2017-08-27T02:03:47.436Z,18.5
2017-08-27T02:04:47.001Z,18.5
2017-08-27T02:05:45.810Z,18.5
2017-08-27T02:06:44.996Z,18.5
2017-08-27T02:07:44.686Z,18.5
2017-08-27T02:08:44.009Z,18.5
2017-08-27T02:09:43.331Z,18.5
2017-08-27T02:10:42.763Z,18.5
2017-08-27T02:11:42.206Z,18.5
2017-08-27T02:12:41.646Z,18.5
2017-08-27T02:13:40.450Z,18.5
2017-08-27T02:14:39.890Z,18.5
2017-08-27T02:15:39.443Z,18.4
2017-08-27T02:16:38.752Z,18.5
2017-08-27T02:18:37.581Z,18.5
2017-08-27T02:19:36.900Z,18.5
2017-08-27T02:20:36.457Z,18.5
2017-08-27T02:21:36.198Z,18.5
2017-08-27T02:22:35.258Z,18.5
2017-08-27T02:23:34.858Z,18.5
2017-08-27T02:24:33.792Z,18.5
2017-08-27T02:25:32.979Z,18.5
2017-08-27T02:26:32.164Z,18.5
2017-08-27T02:27:31.981Z,18.5
2017-08-27T02:28:31.299Z,18.5
2017-08-27T02:29:30.612Z,18.5
2017-08-27T02:30:30.061Z,18.5
2017-08-27T02:31:29.518Z,18.5
2017-08-27T02:32:28.722Z,18.5
2017-08-27T02:33:28.155Z,18.5
2017-08-27T02:34:27.464Z,18.5
2017-08-27T02:35:26.910Z,18.5
2017-08-27T02:36:26.220Z,18.5
2017-08-27T02:38:24.928Z,18.5
2017-08-27T02:39:24.645Z,18.5
2017-08-27T02:40:23.719Z,18.5
2017-08-27T02:41:23.057Z,18.5
2017-08-27T02:42:22.614Z,18.5
2017-08-27T02:43:21.549Z,18.5
2017-08-27T02:44:20.869Z,18.5
2017-08-27T02:45:20.058Z,18.5
2017-08-27T02:46:20.138Z,18.5
2017-08-27T02:47:19.070Z,18.5
2017-08-27T02:48:18.504Z,18.5
2017-08-27T02:49:17.832Z,18.5
2017-08-27T02:50:17.028Z,18.5
2017-08-27T02:51:16.461Z,18.5
2017-08-27T02:52:16.170Z,18.5
2017-08-27T02:53:15.497Z,18.5
2017-08-27T02:54:14.940Z,18.5
2017-08-27T02:55:14.253Z,18.5
2017-08-27T02:56:13.586Z,18.5
2017-08-27T02:58:12.289Z,18.5
2017-08-27T02:59:11.847Z,18.5
2017-08-27T03:00:10.908Z,18.5
2017-08-27T03:01:10.480Z,18.5
2017-08-27T03:02:09.558Z,18.5
2017-08-27T03:03:08.883Z,18.5
2017-08-27T03:04:08.322Z,18.5
2017-08-27T03:05:07.766Z,18.5
2017-08-27T03:06:06.956Z,18.5
2017-08-27T03:07:06.146Z,18.5
2017-08-27T03:08:05.832Z,18.4
2017-08-27T03:09:05.291Z,18.4
2017-08-27T03:10:04.867Z,18.4
2017-08-27T03:11:03.805Z,18.5
2017-08-27T03:13:02.745Z,18.5
2017-08-27T03:14:02.429Z,18.5
2017-08-27T03:15:01.242Z,18.5
2017-08-27T03:16:00.426Z,18.4
2017-08-27T03:17:00.101Z,18.5
2017-08-27T03:17:59.787Z,18.5
2017-08-27T03:18:58.346Z,18.5
2017-08-27T03:19:58.036Z,18.4
2017-08-27T03:20:57.353Z,18.4
2017-08-27T03:21:56.545Z,18.3
2017-08-27T03:22:55.978Z,18.3
2017-08-27T03:23:55.416Z,18.3
2017-08-27T03:24:55.105Z,18.4
2017-08-27T03:25:54.419Z,18.4
2017-08-27T03:26:53.724Z,18.3
2017-08-27T03:27:53.306Z,18.3
2017-08-27T03:28:52.505Z,18.3
2017-08-27T03:29:51.818Z,18.3
2017-08-27T03:30:51.286Z,18.3
2017-08-27T03:31:50.474Z,18.3
2017-08-27T03:32:49.671Z,18.3
2017-08-27T03:33:49.225Z,18.3
2017-08-27T03:34:48.543Z,18.3
2017-08-27T03:35:47.739Z,18.3
2017-08-27T03:36:47.229Z,18.3
2017-08-27T03:37:46.929Z,18.3
2017-08-27T03:38:45.865Z,18.3
2017-08-27T03:39:45.177Z,18.3
2017-08-27T03:40:45.112Z,18.3
2017-08-27T03:42:43.817Z,18.3
2017-08-27T03:43:42.996Z,18.3
2017-08-27T03:44:42.184Z,18.3
2017-08-27T03:45:41.288Z,18.3
2017-08-27T03:46:41.110Z,18.3
2017-08-27T03:47:40.197Z,18.3
2017-08-27T03:48:39.896Z,18.3
2017-08-27T03:49:38.707Z,18.3
2017-08-27T03:50:38.408Z,18.2
2017-08-27T03:51:37.725Z,18.2
2017-08-27T03:52:37.033Z,18.2
2017-08-27T03:53:36.359Z,18.2
2017-08-27T03:54:35.762Z,18.1
2017-08-27T03:55:35.213Z,18.1
2017-08-27T03:56:34.669Z,18.1
2017-08-27T03:57:33.982Z,18.1
2017-08-27T03:58:33.307Z,18.1
2017-08-27T03:59:32.738Z,18.1
2017-08-27T04:00:32.073Z,18.1
2017-08-27T04:01:31.641Z,18.1
2017-08-27T04:02:30.572Z,18.1
2017-08-27T04:03:30.025Z,18
2017-08-27T04:04:29.550Z,18
2017-08-27T04:05:28.739Z,18
2017-08-27T04:06:28.307Z,18
2017-08-27T04:07:27.253Z,18.1
2017-08-27T04:08:26.816Z,18
2017-08-27T04:09:26.255Z,18
2017-08-27T04:10:25.689Z,18
2017-08-27T04:11:25.013Z,18
2017-08-27T04:12:24.456Z,18
2017-08-27T04:13:23.514Z,18
2017-08-27T04:14:23.464Z,18
2017-08-27T04:15:22.427Z,18
2017-08-27T04:16:21.609Z,18
2017-08-27T04:17:21.181Z,18
2017-08-27T04:18:20.610Z,17.9
2017-08-27T04:19:19.821Z,18
2017-08-27T04:20:19.315Z,17.9
2017-08-27T04:21:18.755Z,17.8
2017-08-27T04:22:18.073Z,17.8
2017-08-27T04:23:17.135Z,17.8
2017-08-27T04:24:16.575Z,17.8
2017-08-27T04:25:16.130Z,17.8
2017-08-27T04:26:15.575Z,17.8
2017-08-27T04:27:14.645Z,17.8
2017-08-27T04:29:13.469Z,17.8
2017-08-27T04:30:12.654Z,17.8
2017-08-27T04:31:11.840Z,17.8
2017-08-27T04:32:11.287Z,17.8
2017-08-27T04:33:10.849Z,17.8
2017-08-27T04:34:10.154Z,17.8
2017-08-27T04:36:08.984Z,17.8
2017-08-27T04:37:08.421Z,17.8
2017-08-27T04:38:07.233Z,17.7
2017-08-27T04:39:07.054Z,17.7
2017-08-27T04:41:06.001Z,17.7
2017-08-27T04:42:05.062Z,17.7
2017-08-27T04:43:04.392Z,17.7
2017-08-27T04:44:03.707Z,17.8
2017-08-27T04:45:03.031Z,17.7
2017-08-27T04:47:01.849Z,17.7
2017-08-27T04:48:01.419Z,17.8
2017-08-27T04:49:00.339Z,17.8
2017-08-27T04:50:00.046Z,17.7
2017-08-27T04:50:58.999Z,17.6
2017-08-27T04:51:58.299Z,17.6
2017-08-27T04:52:57.612Z,17.6
2017-08-27T04:53:57.196Z,17.6
2017-08-27T04:54:56.779Z,17.6
2017-08-27T04:55:55.723Z,17.6
2017-08-27T04:56:55.290Z,17.6
2017-08-27T04:57:54.729Z,17.7
2017-08-27T04:58:54.170Z,17.6
2017-08-27T04:59:53.120Z,17.6
2017-08-27T05:00:52.319Z,17.6
2017-08-27T05:01:51.636Z,17.8
2017-08-27T05:02:51.217Z,17.8
2017-08-27T05:03:50.402Z,17.8
2017-08-27T05:04:50.223Z,17.8
2017-08-27T05:05:49.413Z,17.8
2017-08-27T05:06:48.869Z,17.8
2017-08-27T05:07:47.689Z,17.8
2017-08-27T05:08:47.008Z,17.8
2017-08-27T05:09:46.459Z,17.8
2017-08-27T05:10:46.146Z,17.8
2017-08-27T05:11:45.218Z,17.8
2017-08-27T05:12:44.657Z,17.8
2017-08-27T05:13:44.236Z,17.8
2017-08-27T05:14:43.303Z,17.8
2017-08-27T05:15:42.485Z,17.8
2017-08-27T05:16:41.668Z,17.8
2017-08-27T05:19:40.267Z,17.9
2017-08-27T05:20:38.962Z,17.8
2017-08-27T05:21:38.898Z,17.9
2017-08-27T05:22:38.349Z,17.9
2017-08-27T05:23:37.550Z,18
2017-08-27T05:24:36.860Z,18
2017-08-27T05:25:36.306Z,18
2017-08-27T05:26:35.623Z,18.1
2017-08-27T05:27:35.065Z,18.1
2017-08-27T05:28:34.504Z,18.1
2017-08-27T05:29:33.313Z,18.1
2017-08-27T05:32:31.394Z,18.3
2017-08-27T05:33:31.085Z,18.3
2017-08-27T05:34:30.274Z,18.3
2017-08-27T05:35:29.450Z,18.4
2017-08-27T05:36:28.893Z,18.4
2017-08-27T05:37:28.464Z,18.4
2017-08-27T05:38:27.548Z,18.4
2017-08-27T05:39:27.001Z,18.4
2017-08-27T05:40:26.335Z,18.3
2017-08-27T05:41:25.526Z,18.4
2017-08-27T05:42:24.717Z,18.5
2017-08-27T05:43:24.533Z,18.6
2017-08-27T05:44:23.484Z,18.7
2017-08-27T05:45:22.796Z,18.8
2017-08-27T05:46:22.241Z,18.9
2017-08-27T05:47:21.423Z,19
2017-08-27T05:48:20.756Z,19.1
2017-08-27T05:49:20.202Z,19.1
2017-08-27T05:50:19.648Z,19
2017-08-27T05:51:18.974Z,19
2017-08-27T05:52:18.282Z,19
2017-08-27T05:53:17.597Z,19.1
2017-08-27T05:54:17.178Z,19.1
2017-08-27T05:55:16.385Z,19.1
2017-08-27T05:56:15.708Z,19.1
2017-08-27T05:57:15.144Z,19.1
2017-08-27T05:58:14.706Z,19.2
2017-08-27T05:59:13.779Z,19.3
2017-08-27T06:00:13.352Z,19.5
2017-08-27T06:01:12.547Z,19.5
2017-08-27T06:02:11.977Z,19.5
2017-08-27T06:03:10.786Z,19.6
2017-08-27T06:04:10.735Z,19.5
2017-08-27T06:05:09.311Z,19.5
2017-08-27T06:06:09.260Z,19.7
2017-08-27T06:07:08.709Z,19.7
2017-08-27T06:07:39.332Z,19.7
2017-08-27T06:09:07.329Z,19.8
2017-08-27T06:10:06.157Z,20
2017-08-27T06:11:05.856Z,20.1
2017-08-27T06:12:05.417Z,20.1
2017-08-27T06:13:04.339Z,20.2
2017-08-27T06:14:03.645Z,20.3
2017-08-27T06:16:02.475Z,20.5
2017-08-27T06:17:02.173Z,20.5
2017-08-27T06:18:01.244Z,20.5
2017-08-27T06:19:59.960Z,20.4
2017-08-27T06:20:59.662Z,20.3
2017-08-27T06:22:57.993Z,20.1
2017-08-27T06:23:57.566Z,20
2017-08-27T06:24:56.757Z,20
2017-08-27T06:25:56.327Z,19.8
2017-08-27T06:26:55.253Z,19.8
2017-08-27T06:27:54.698Z,19.8
2017-08-27T06:28:54.024Z,19.7
2017-08-27T06:31:52.387Z,19.8
2017-08-27T06:32:51.058Z,19.8
2017-08-27T06:33:51.133Z,19.7
2017-08-27T06:34:50.075Z,19.6
2017-08-27T06:35:49.266Z,19.5
2017-08-27T06:36:48.824Z,19.5
2017-08-27T06:37:48.141Z,19.6
2017-08-27T06:38:47.829Z,19.6
2017-08-27T06:39:46.761Z,19.6
2017-08-27T06:40:45.940Z,19.6
2017-08-27T06:42:44.921Z,19.5
2017-08-27T06:43:44.503Z,19.5
2017-08-27T06:44:43.958Z,19.4
2017-08-27T06:45:42.764Z,19.3
2017-08-27T06:46:42.080Z,19.3
2017-08-27T06:47:41.526Z,19.3
2017-08-27T06:48:40.832Z,19.3
2017-08-27T06:50:39.665Z,19.1
2017-08-27T06:51:39.098Z,19.1
2017-08-27T06:52:38.536Z,19.1
2017-08-27T06:53:37.604Z,19.1
2017-08-27T06:54:37.299Z,19.1
2017-08-27T06:55:36.883Z,19.3
2017-08-27T06:56:35.693Z,19.6
2017-08-27T06:57:35.132Z,19.8
2017-08-27T06:58:34.449Z,20
2017-08-27T06:59:33.881Z,20.2
2017-08-27T07:00:33.581Z,20.3
2017-08-27T07:01:32.263Z,20.5
2017-08-27T07:02:03.007Z,20.5
2017-08-27T07:02:33.638Z,20.7
2017-08-27T07:03:31.073Z,20.7
2017-08-27T07:05:30.153Z,20.7
2017-08-27T07:06:28.831Z,20.9
2017-08-27T07:07:28.784Z,21.1
2017-08-27T07:08:27.970Z,21.1
2017-08-27T07:09:27.404Z,21
2017-08-27T07:10:26.466Z,21.1
2017-08-27T07:11:25.909Z,21.3
2017-08-27T07:13:24.861Z,20.9
2017-08-27T07:14:23.920Z,21
2017-08-27T07:16:22.754Z,21.4
2017-08-27T07:17:22.325Z,21.5
2017-08-27T07:18:21.022Z,21.7
2017-08-27T07:19:20.723Z,21.9
2017-08-27T07:20:20.166Z,21.8
2017-08-27T07:21:19.733Z,21.6
2017-08-27T07:23:18.447Z,21.6
2017-08-27T07:24:17.249Z,21.7
2017-08-27T07:25:16.687Z,21.4
2017-08-27T07:26:16.133Z,21.5
2017-08-27T07:27:15.573Z,21.6
2017-08-27T07:28:15.182Z,21.6
2017-08-27T07:29:14.251Z,21.5
2017-08-27T07:30:13.825Z,21.3
2017-08-27T07:31:12.769Z,21.5
2017-08-27T07:32:12.451Z,21.5
2017-08-27T07:33:11.519Z,21.6
2017-08-27T07:34:10.990Z,21.4
2017-08-27T07:35:10.586Z,21.4
2017-08-27T07:36:09.519Z,21.6
2017-08-27T07:37:09.770Z,21.7
2017-08-27T07:38:08.216Z,21.5
2017-08-27T07:39:07.565Z,21.5
2017-08-27T07:40:06.889Z,21.5
2017-08-27T07:41:06.206Z,21.5
2017-08-27T07:43:05.154Z,21.3
2017-08-27T07:44:04.354Z,21.4
2017-08-27T07:45:03.421Z,21.4
2017-08-27T07:49:01.400Z,21.5
2017-08-27T07:50:59.973Z,21.5
2017-08-27T07:51:59.289Z,21.5
2017-08-27T07:52:58.608Z,21.5
2017-08-27T08:18:42.381Z,21.7
2017-08-27T08:22:39.378Z,22.8
2017-08-27T08:23:38.837Z,22.8
2017-08-27T08:24:38.414Z,22.9
2017-08-27T08:25:37.224Z,22.6
2017-08-27T08:28:35.562Z,22.1
2017-08-27T08:29:06.326Z,22.1
2017-08-27T08:30:34.700Z,22.1
2017-08-27T08:33:32.308Z,22.1
2017-08-27T08:34:32.002Z,22
2017-08-27T08:35:31.440Z,22.1
2017-08-27T08:36:30.881Z,22.1
2017-08-27T08:43:26.043Z,21.6
2017-08-27T09:03:13.738Z,21.8
2017-08-27T09:10:09.024Z,21.7
2017-08-27T09:12:07.625Z,21.7
2017-08-27T09:14:06.709Z,21.6
2017-08-27T09:16:05.281Z,21.6
2017-08-27T09:17:05.149Z,21.8
2017-08-27T09:18:04.587Z,21.8
2017-08-27T09:20:03.044Z,21.9
2017-08-27T09:22:02.013Z,22.4
2017-08-27T09:22:32.377Z,22.4
2017-08-27T09:25:00.013Z,22.7
2017-08-27T09:25:59.323Z,22.7
2017-08-27T09:26:58.880Z,22.7
2017-08-27T09:27:58.321Z,22.6
2017-08-27T09:28:57.615Z,22.5
2017-08-27T09:31:55.841Z,22.4
2017-08-27T09:33:54.557Z,22.2
2017-08-27T09:34:54.001Z,22.1
2017-08-27T09:35:52.981Z,22
2017-08-27T09:36:52.690Z,21.8
2017-08-27T09:37:52.385Z,21.8
2017-08-27T09:38:51.461Z,21.8
2017-08-27T09:39:50.905Z,21.8
2017-08-27T09:40:50.359Z,21.8
2017-08-27T09:41:49.683Z,21.8
2017-08-27T09:42:48.885Z,21.8
2017-08-27T09:43:48.453Z,21.8
2017-08-27T09:44:47.639Z,21.9
2017-08-27T09:45:47.085Z,21.9
2017-08-27T09:46:46.160Z,22
2017-08-27T09:47:45.486Z,22
2017-08-27T09:48:45.438Z,22
2017-08-27T09:49:44.883Z,22
2017-08-27T09:50:44.324Z,22
2017-08-27T09:51:43.891Z,21.9
2017-08-27T09:52:42.829Z,21.9
2017-08-27T09:53:42.144Z,21.8
2017-08-27T09:54:41.495Z,21.6
2017-08-27T09:55:41.069Z,21.6
2017-08-27T09:57:40.185Z,21.6
2017-08-27T09:58:39.249Z,21.7
2017-08-27T09:59:38.962Z,21.7
2017-08-27T10:00:37.786Z,21.7
2017-08-27T10:01:37.349Z,21.7
2017-08-27T10:02:36.910Z,21.8
2017-08-27T10:03:36.096Z,21.8
2017-08-27T10:04:35.660Z,21.8
2017-08-27T10:05:35.235Z,21.8
2017-08-27T10:06:34.680Z,21.9
2017-08-27T10:07:33.745Z,21.8
2017-08-27T10:08:33.065Z,21.9
2017-08-27T10:09:32.264Z,22
2017-08-27T10:10:32.077Z,22.1
2017-08-27T10:11:31.269Z,22.2
2017-08-27T10:13:29.971Z,22.4
2017-08-27T10:14:29.534Z,22.5
2017-08-27T10:15:28.847Z,22.4
2017-08-27T10:16:28.445Z,22.3
2017-08-27T10:17:27.759Z,22.2
2017-08-27T10:18:27.197Z,22.2
2017-08-27T10:19:26.512Z,22.2
2017-08-27T10:20:25.945Z,22.1
2017-08-27T10:21:25.393Z,22.1
2017-08-27T10:22:24.971Z,22.1
2017-08-27T10:23:24.168Z,22
2017-08-27T10:24:23.873Z,22
2017-08-27T10:25:22.808Z,22
2017-08-27T10:26:22.264Z,22
2017-08-27T10:27:21.715Z,21.9
2017-08-27T10:28:21.154Z,21.9
2017-08-27T10:29:20.615Z,21.9
2017-08-27T10:31:19.443Z,21.8
2017-08-27T10:32:18.764Z,22
2017-08-27T10:33:18.091Z,22
2017-08-27T10:34:17.409Z,22
2017-08-27T10:35:17.118Z,22.2
2017-08-27T10:36:16.580Z,22.2
2017-08-27T10:37:16.013Z,22.2
2017-08-27T10:38:14.827Z,22.3
2017-08-27T10:40:14.287Z,22.3
2017-08-27T10:41:13.359Z,22.4
2017-08-27T10:42:13.053Z,22.5
2017-08-27T10:44:11.764Z,22.3
2017-08-27T10:45:11.341Z,22.2
2017-08-27T10:46:10.405Z,22
2017-08-27T10:47:09.976Z,22
2017-08-27T10:48:09.549Z,22
2017-08-27T10:49:08.622Z,22
2017-08-27T10:50:08.764Z,22
2017-08-27T10:51:07.706Z,22
2017-08-27T10:52:06.897Z,22
2017-08-27T10:53:06.227Z,22
2017-08-27T10:54:05.687Z,22
2017-08-27T10:55:05.129Z,22
2017-08-27T10:56:04.676Z,22
2017-08-27T10:57:04.132Z,22.1
2017-08-27T10:58:02.816Z,22.1
2017-08-27T10:59:02.644Z,22.1
2017-08-27T11:00:02.344Z,22.1
2017-08-27T11:01:01.398Z,22.1
2017-08-27T11:02:00.964Z,22.1
2017-08-27T11:03:00.275Z,22.1
2017-08-27T11:03:59.965Z,22.1
2017-08-27T11:04:59.535Z,22.1
2017-08-27T11:05:58.970Z,22.2
2017-08-27T11:06:57.670Z,22.2
2017-08-27T11:07:57.362Z,22.1
2017-08-27T11:08:56.688Z,22.2
2017-08-27T11:09:56.506Z,22.1
2017-08-27T11:10:55.946Z,22
2017-08-27T11:11:55.016Z,22
2017-08-27T11:12:54.202Z,22
2017-08-27T11:13:53.893Z,22
2017-08-27T11:14:53.084Z,21.9
2017-08-27T11:15:52.400Z,21.9
2017-08-27T11:16:51.982Z,21.9
2017-08-27T11:17:51.676Z,21.9
2017-08-27T11:18:50.993Z,21.9
2017-08-27T11:19:50.435Z,22
2017-08-27T11:20:49.881Z,22
2017-08-27T11:21:49.085Z,22
2017-08-27T11:23:48.431Z,21.9
2017-08-27T11:24:48.003Z,21.9
2017-08-27T11:25:46.803Z,21.9
2017-08-27T11:26:46.740Z,21.9
2017-08-27T11:27:46.315Z,21.8
2017-08-27T11:28:45.128Z,21.9
2017-08-27T11:29:44.455Z,21.9
2017-08-27T11:30:44.270Z,21.9
2017-08-27T11:31:43.957Z,22
2017-08-27T11:32:42.766Z,22
2017-08-27T11:33:42.481Z,22
2017-08-27T11:34:42.179Z,22
2017-08-27T11:35:40.999Z,22
2017-08-27T11:36:40.191Z,22
2017-08-27T11:37:40.147Z,22.1
2017-08-27T11:38:39.201Z,22.1
2017-08-27T11:39:39.154Z,22
2017-08-27T11:40:38.724Z,22
2017-08-27T11:41:37.789Z,22
2017-08-27T11:42:37.237Z,22
2017-08-27T11:43:36.546Z,22
2017-08-27T11:44:35.868Z,22.1
2017-08-27T11:45:35.686Z,22.1
2017-08-27T11:46:35.136Z,22.2
2017-08-27T11:47:34.084Z,22.2
2017-08-27T11:48:34.040Z,22.2
2017-08-27T11:49:33.484Z,22.3
2017-08-27T11:50:32.675Z,22.3
2017-08-27T11:51:32.371Z,22.2
2017-08-27T11:52:31.676Z,22.2
2017-08-27T11:53:30.730Z,22.2
2017-08-27T11:54:30.702Z,22.2
2017-08-27T11:55:29.637Z,22.1
2017-08-27T11:56:28.965Z,22.1
2017-08-27T11:57:28.915Z,22.1
2017-08-27T11:58:28.352Z,22.1
2017-08-27T11:59:27.411Z,22.1
2017-08-27T12:00:26.847Z,22.2
2017-08-27T12:00:57.614Z,22.2
2017-08-27T12:01:28.442Z,22.2
2017-08-27T12:01:58.189Z,22.2
2017-08-27T12:02:28.819Z,22.3
2017-08-27T12:03:25.368Z,22.4
2017-08-27T12:04:24.552Z,22.5
2017-08-27T12:05:23.902Z,22.5
2017-08-27T12:06:23.208Z,22.5
2017-08-27T12:07:22.911Z,22.6
2017-08-27T12:09:21.748Z,22.7
2017-08-27T12:11:20.708Z,22.8
2017-08-27T12:12:20.269Z,22.8
2017-08-27T12:13:19.337Z,22.9
2017-08-27T12:14:19.158Z,23
2017-08-27T12:15:18.357Z,23
2017-08-27T12:16:17.418Z,23
2017-08-27T12:17:17.357Z,23.1
2017-08-27T12:18:16.812Z,23.1
2017-08-27T12:19:16.388Z,23.1
2017-08-27T12:20:15.441Z,23.2
2017-08-27T12:21:14.636Z,23.2
2017-08-27T12:22:14.574Z,23.2
2017-08-27T12:24:13.155Z,23.1
2017-08-27T12:25:12.604Z,23.1
2017-08-27T12:26:12.039Z,23
2017-08-27T12:27:11.473Z,23
2017-08-27T12:28:11.037Z,23
2017-08-27T12:29:10.718Z,23
2017-08-27T12:30:10.036Z,22.9
2017-08-27T12:31:09.340Z,23
2017-08-27T12:32:08.797Z,23
2017-08-27T12:33:08.240Z,23.1
2017-08-27T12:34:07.553Z,23.1
2017-08-27T12:35:07.126Z,23.1
2017-08-27T12:36:06.820Z,23.1
2017-08-27T12:37:05.766Z,23.1
2017-08-27T12:38:05.209Z,23.1
2017-08-27T12:39:05.023Z,23.1
2017-08-27T12:40:04.340Z,23.1
2017-08-27T12:42:03.304Z,23.1
2017-08-27T12:43:02.739Z,23.1
2017-08-27T12:44:02.168Z,23.3
2017-08-27T12:44:32.557Z,23.3
2017-08-27T12:45:03.064Z,23.3
2017-08-27T12:45:33.558Z,23.3
2017-08-27T12:47:00.299Z,23.3
2017-08-27T12:48:00.118Z,23.3
2017-08-27T12:48:59.575Z,23.3
2017-08-27T12:49:59.016Z,23.3
2017-08-27T12:50:58.345Z,23.3
2017-08-27T12:51:57.923Z,23.3
2017-08-27T12:52:57.497Z,23.3
2017-08-27T12:53:56.692Z,23.3
2017-08-27T12:54:55.754Z,23.3
2017-08-27T12:55:26.509Z,23.3
2017-08-27T12:55:56.644Z,23.3
2017-08-27T12:56:27.546Z,23.3
2017-08-27T12:57:54.292Z,23.3
2017-08-27T12:58:53.812Z,23.3
2017-08-27T12:59:53.249Z,23.3
2017-08-27T13:00:52.837Z,23.3
2017-08-27T13:01:52.283Z,23.3
2017-08-27T13:02:51.596Z,23.3
2017-08-27T13:03:51.416Z,23.3
2017-08-27T13:04:50.353Z,23.3
2017-08-27T13:05:50.426Z,23.3
2017-08-27T13:06:49.124Z,23.3
2017-08-27T13:07:49.080Z,23.3
2017-08-27T13:08:48.647Z,23.6
2017-08-27T13:09:48.227Z,23.6
2017-08-27T13:10:47.680Z,23.6
2017-08-27T13:11:46.636Z,23.6
2017-08-27T13:12:46.570Z,23.6
2017-08-27T13:13:45.514Z,23.3
2017-08-27T13:14:44.825Z,23.3
2017-08-27T13:15:44.767Z,23.3
2017-08-27T13:16:43.958Z,23.3
2017-08-27T13:17:43.282Z,23.3
2017-08-27T13:18:43.097Z,23.3
2017-08-27T13:19:42.561Z,23.3
2017-08-27T13:20:42.004Z,22.6
2017-08-27T13:21:40.938Z,22.6
2017-08-27T13:22:40.507Z,22.6
2017-08-27T13:23:40.450Z,22.6
2017-08-27T13:24:39.776Z,22.6
2017-08-27T13:25:38.835Z,22.6
2017-08-27T13:26:38.657Z,22.6
2017-08-27T13:27:38.363Z,22.8
2017-08-27T13:28:37.674Z,22.8
2017-08-27T13:29:37.367Z,22.8
2017-08-27T13:30:36.307Z,22.8
2017-08-27T13:31:35.626Z,22.8
2017-08-27T13:32:35.318Z,22.8
2017-08-27T13:33:34.765Z,22.8
2017-08-27T13:34:34.202Z,22.8
2017-08-27T13:35:33.392Z,22.8
2017-08-27T13:36:33.321Z,22.8
2017-08-27T13:37:32.520Z,22.8
2017-08-27T13:38:32.466Z,22.8
2017-08-27T13:39:32.036Z,22.8
2017-08-27T13:40:31.081Z,22.8
2017-08-27T13:42:29.923Z,22.8
2017-08-27T13:44:29.131Z,22.5
2017-08-27T13:45:28.453Z,22.5
2017-08-27T13:46:28.180Z,22.5
2017-08-27T13:47:27.141Z,22.5
2017-08-27T13:48:26.831Z,22.5
2017-08-27T13:49:26.403Z,22.5
2017-08-27T13:50:26.106Z,22.5
2017-08-27T13:51:24.920Z,22.5
2017-08-27T13:52:24.493Z,22.5
2017-08-27T13:52:54.877Z,22.5
2017-08-27T13:53:25.119Z,22.5
2017-08-27T13:55:23.315Z,22.5
2017-08-27T13:56:22.634Z,22.5
2017-08-27T13:57:22.205Z,22.5
2017-08-27T13:58:21.524Z,22.5
2017-08-27T13:59:21.096Z,22.5
2017-08-27T14:00:20.412Z,22.5
2017-08-27T14:01:19.733Z,22.5
2017-08-27T14:02:19.302Z,22.5
2017-08-27T14:03:18.739Z,22.5
2017-08-27T14:04:17.802Z,22.5
2017-08-27T14:06:17.134Z,22.5
2017-08-27T14:07:16.577Z,22.5
2017-08-27T14:08:16.021Z,22.5
2017-08-27T14:09:15.342Z,22.5
2017-08-27T14:10:14.892Z,22.5
2017-08-27T14:11:14.319Z,22.6
2017-08-27T14:12:14.139Z,22.6
2017-08-27T14:13:13.460Z,22.6
2017-08-27T14:14:12.917Z,22.6
2017-08-27T14:15:12.231Z,22.6
2017-08-27T14:17:11.444Z,22.6
2017-08-27T14:18:10.642Z,22.6
2017-08-27T14:19:09.897Z,22.6
2017-08-27T14:20:09.857Z,22.5
2017-08-27T14:21:09.179Z,22.5
2017-08-27T14:22:08.622Z,22.5
2017-08-27T14:23:07.931Z,22.5
2017-08-27T14:24:07.750Z,22.5
2017-08-27T14:25:06.934Z,22.5
2017-08-27T14:28:05.531Z,22.3
2017-08-27T14:29:04.849Z,22.4
2017-08-27T14:30:03.901Z,22.4
2017-08-27T14:31:04.225Z,22.4
2017-08-27T14:32:03.723Z,22.4
2017-08-27T14:33:02.663Z,22.3
2017-08-27T14:34:02.240Z,22.3
2017-08-27T14:35:01.684Z,22.3
2017-08-27T14:36:01.126Z,22.2
2017-08-27T14:36:31.121Z,22.2
2017-08-27T14:37:02.006Z,22.2
2017-08-27T14:38:00.603Z,22.2
2017-08-27T14:38:59.919Z,22.2
2017-08-27T14:39:59.238Z,22.1
2017-08-27T14:40:58.545Z,22.1
2017-08-27T14:41:58.101Z,22.2
2017-08-27T14:42:57.529Z,22.1
2017-08-27T14:43:57.093Z,22.1
2017-08-27T14:44:56.524Z,22.1
2017-08-27T14:45:55.838Z,22.1
2017-08-27T14:46:55.664Z,22.2
2017-08-27T14:47:55.108Z,22.1
2017-08-27T14:48:25.110Z,22.1
2017-08-27T14:49:53.612Z,22.1
2017-08-27T14:50:53.549Z,22.1
2017-08-27T14:51:52.626Z,22.1
2017-08-27T14:52:52.587Z,22.1
2017-08-27T14:53:51.782Z,22.2
2017-08-27T14:54:50.972Z,22.1
2017-08-27T14:55:50.417Z,22.1
2017-08-27T14:56:50.359Z,22.1
2017-08-27T14:57:49.540Z,22.2
2017-08-27T14:58:48.616Z,22.1
2017-08-27T14:59:48.571Z,22.1
2017-08-27T15:00:48.017Z,22.1
2017-08-27T15:01:47.345Z,22.1
2017-08-27T15:02:47.288Z,22.1
2017-08-27T15:03:46.726Z,22.1
2017-08-27T15:04:46.168Z,22.1
2017-08-27T15:05:45.361Z,22.1
2017-08-27T15:06:44.675Z,22.2
2017-08-27T15:07:43.991Z,22.2
2017-08-27T15:08:43.817Z,22.2
2017-08-27T15:09:43.167Z,22.2
2017-08-27T15:10:42.736Z,22.2
2017-08-27T15:11:42.051Z,22.1
2017-08-27T15:12:41.488Z,22.1